createdAt,value
2018-07-23T00:04:52.152Z,22.30
2018-07-23T00:07:20.522Z,22.40
2018-07-23T00:09:48.898Z,22.40
2018-07-23T00:12:17.326Z,22.30
2018-07-23T00:14:45.713Z,22.20
2018-07-23T00:17:14.128Z,22.30
2018-07-23T00:19:42.508Z,22.40
2018-07-23T00:22:10.898Z,22.30
2018-07-23T00:24:39.289Z,22.30
2018-07-23T00:27:07.661Z,22.40
2018-07-23T00:29:36.065Z,22.20
2018-07-23T00:32:04.438Z,22.00
2018-07-23T00:34:32.816Z,22.20
2018-07-23T00:37:01.232Z,22.20
2018-07-23T00:39:29.598Z,22.10
2018-07-23T00:41:58.030Z,22.10
2018-07-23T00:44:26.525Z,22.10
2018-07-23T00:46:55.002Z,22.00
2018-07-23T00:49:23.465Z,22.00
2018-07-23T00:51:51.878Z,22.00
2018-07-23T00:54:20.293Z,22.10
2018-07-23T00:56:48.689Z,22.20
2018-07-23T00:59:17.047Z,22.10
2018-07-23T01:01:45.471Z,22.00
2018-07-23T01:04:13.817Z,22.00
2018-07-23T01:06:42.193Z,22.00
2018-07-23T01:09:11.542Z,22.00
2018-07-23T01:11:39.922Z,21.90
2018-07-23T01:14:08.613Z,21.70
2018-07-23T01:16:37.120Z,21.60
2018-07-23T01:19:06.033Z,21.70
2018-07-23T01:21:34.434Z,21.60
2018-07-23T01:24:02.845Z,21.60
2018-07-23T01:26:31.277Z,21.70
2018-07-23T01:28:59.678Z,21.50
2018-07-23T01:31:28.090Z,21.60
2018-07-23T01:33:56.489Z,21.60
2018-07-23T01:36:24.873Z,21.50
2018-07-23T01:38:53.291Z,21.60
2018-07-23T01:41:21.720Z,21.60
2018-07-23T01:43:50.092Z,21.60
2018-07-23T01:46:18.674Z,21.60
2018-07-23T01:48:47.127Z,21.60
2018-07-23T01:51:15.554Z,21.70
2018-07-23T01:53:43.959Z,21.70
2018-07-23T01:56:12.344Z,21.60
2018-07-23T01:58:40.701Z,21.50
2018-07-23T02:01:11.609Z,21.50
2018-07-23T02:03:41.334Z,21.40
2018-07-23T02:06:10.414Z,21.40
2018-07-23T02:08:38.922Z,21.50
2018-07-23T02:11:07.782Z,21.50
2018-07-23T02:13:36.152Z,21.60
2018-07-23T02:16:04.651Z,21.70
2018-07-23T02:18:33.041Z,21.60
2018-07-23T02:21:01.434Z,21.60
2018-07-23T02:23:29.870Z,21.60
2018-07-23T02:25:58.241Z,21.50
2018-07-23T02:28:26.599Z,21.50
2018-07-23T02:30:55.040Z,21.60
2018-07-23T02:33:23.423Z,21.50
2018-07-23T02:35:51.814Z,21.50
2018-07-23T02:38:20.160Z,21.40
2018-07-23T02:40:48.622Z,21.40
2018-07-23T02:43:16.994Z,21.40
2018-07-23T02:45:45.353Z,21.50
2018-07-23T02:48:13.765Z,21.40
2018-07-23T02:50:42.147Z,21.50
2018-07-23T02:53:10.547Z,21.50
2018-07-23T02:55:39.076Z,21.40
2018-07-23T02:58:07.763Z,21.50
2018-07-23T03:00:36.138Z,21.40
2018-07-23T03:03:04.511Z,21.50
2018-07-23T03:05:32.882Z,21.30
2018-07-23T03:08:01.260Z,21.40
2018-07-23T03:10:29.612Z,21.30
2018-07-23T03:12:58.030Z,21.00
2018-07-23T03:15:26.402Z,21.00
2018-07-23T03:20:22.973Z,21.10
2018-07-23T03:22:51.384Z,21.20
2018-07-23T03:25:19.783Z,21.40
2018-07-23T03:27:48.190Z,21.40
2018-07-23T03:30:16.581Z,21.50
2018-07-23T03:32:44.957Z,21.40
2018-07-23T03:35:13.338Z,21.50
2018-07-23T03:37:41.747Z,21.40
2018-07-23T03:40:10.098Z,21.30
2018-07-23T03:42:38.538Z,21.30
2018-07-23T03:45:06.926Z,21.20
2018-07-23T03:47:35.326Z,21.20
2018-07-23T03:50:03.923Z,21.20
2018-07-23T03:52:32.294Z,21.20
2018-07-23T03:57:28.891Z,21.20
2018-07-23T03:59:57.297Z,21.20
2018-07-23T04:02:25.649Z,21.20
2018-07-23T04:04:54.076Z,21.10
2018-07-23T04:07:22.470Z,21.20
2018-07-23T04:09:50.880Z,21.20
2018-07-23T04:12:19.218Z,21.40
2018-07-23T04:14:47.634Z,21.40
2018-07-23T04:17:16.033Z,21.50
2018-07-23T04:19:44.502Z,21.50
2018-07-23T04:22:12.871Z,21.50
2018-07-23T04:24:41.285Z,21.50
2018-07-23T04:27:09.709Z,21.70
2018-07-23T04:32:06.214Z,21.40
2018-07-23T04:34:34.585Z,21.50
2018-07-23T04:37:02.957Z,21.60
2018-07-23T04:39:31.330Z,21.60
2018-07-23T04:41:59.909Z,21.50
2018-07-23T04:44:28.323Z,21.70
2018-07-23T04:46:56.664Z,21.60
2018-07-23T04:49:25.121Z,21.50
2018-07-23T04:51:53.502Z,21.50
2018-07-23T04:54:21.961Z,21.50
2018-07-23T04:56:50.467Z,21.50
2018-07-23T04:59:18.871Z,21.60
2018-07-23T05:01:47.230Z,21.70
2018-07-23T05:04:15.629Z,21.80
2018-07-23T05:06:44.031Z,22.00
2018-07-23T05:09:12.830Z,22.00
2018-07-23T05:11:41.698Z,22.00
2018-07-23T05:14:10.711Z,22.00
2018-07-23T05:16:39.171Z,22.10
2018-07-23T05:19:07.898Z,22.10
2018-07-23T05:21:36.350Z,22.30
2018-07-23T05:24:04.779Z,22.40
2018-07-23T05:26:33.190Z,22.60
2018-07-23T05:29:01.555Z,22.70
2018-07-23T05:31:29.917Z,22.80
2018-07-23T05:33:58.313Z,22.80
2018-07-23T05:36:26.673Z,22.90
2018-07-23T05:38:56.031Z,23.00
2018-07-23T05:41:24.476Z,23.10
2018-07-23T05:43:52.841Z,23.10
2018-07-23T05:46:21.390Z,23.20
2018-07-23T05:48:49.829Z,23.20
2018-07-23T05:51:18.208Z,23.30
2018-07-23T05:53:46.566Z,23.40
2018-07-23T05:56:14.993Z,23.50
2018-07-23T05:58:43.372Z,23.60
2018-07-23T06:01:11.785Z,23.70
2018-07-23T06:03:40.982Z,23.80
2018-07-23T06:06:09.362Z,23.70
2018-07-23T06:08:37.757Z,23.70
2018-07-23T06:11:06.145Z,23.50
2018-07-23T06:13:34.558Z,23.30
2018-07-23T06:16:02.973Z,23.20
2018-07-23T06:18:31.347Z,23.20
2018-07-23T06:20:59.717Z,23.10
2018-07-23T06:23:28.110Z,23.20
2018-07-23T06:25:56.566Z,23.40
2018-07-23T06:28:25.031Z,23.60
2018-07-23T06:30:53.414Z,23.90
2018-07-23T06:33:21.830Z,23.90
2018-07-23T06:35:50.199Z,23.90
2018-07-23T06:38:18.594Z,24.00
2018-07-23T06:40:47.035Z,24.10
2018-07-23T06:43:15.465Z,24.10
2018-07-23T06:45:43.806Z,24.30
2018-07-23T06:48:12.189Z,24.50
2018-07-23T06:50:43.598Z,24.40
2018-07-23T06:53:11.982Z,24.50
2018-07-23T06:55:40.329Z,24.70
2018-07-23T06:58:08.731Z,24.80
2018-07-23T07:00:37.391Z,24.80
2018-07-23T07:03:06.145Z,24.70
2018-07-23T07:05:34.602Z,24.90
2018-07-23T07:08:02.971Z,25.10
2018-07-23T07:10:31.344Z,25.20
2018-07-23T07:12:59.796Z,25.30
2018-07-23T07:15:28.209Z,25.30
2018-07-23T07:17:56.738Z,25.30
2018-07-23T07:20:25.381Z,25.40
2018-07-23T07:22:53.754Z,25.50
2018-07-23T07:25:22.245Z,25.50
2018-07-23T07:27:50.643Z,25.60
2018-07-23T07:30:19.013Z,25.80
2018-07-23T07:32:47.604Z,25.90
2018-07-23T07:35:16.023Z,25.80
2018-07-23T07:37:44.524Z,25.90
2018-07-23T07:40:12.989Z,25.90
2018-07-23T07:42:41.424Z,26.00
2018-07-23T07:45:09.899Z,25.90
2018-07-23T07:47:38.306Z,25.80
2018-07-23T07:50:06.691Z,25.80
2018-07-23T07:52:35.054Z,25.80
2018-07-23T07:55:03.461Z,25.90
2018-07-23T07:57:31.955Z,25.90
2018-07-23T08:00:00.372Z,26.00
2018-07-23T08:02:28.730Z,26.00
2018-07-23T08:04:57.159Z,26.00
2018-07-23T08:07:25.539Z,26.00
2018-07-23T08:09:53.919Z,26.00
2018-07-23T08:12:22.292Z,25.90
2018-07-23T08:14:50.656Z,25.90
2018-07-23T08:17:19.051Z,25.90
2018-07-23T08:19:47.463Z,25.80
2018-07-23T08:22:15.917Z,25.90
2018-07-23T08:24:44.786Z,25.80
2018-07-23T08:27:13.170Z,25.70
2018-07-23T08:29:41.553Z,25.80
2018-07-23T08:32:10.057Z,25.80
2018-07-23T08:34:38.438Z,25.80
2018-07-23T08:37:06.878Z,25.80
2018-07-23T08:42:03.379Z,25.80
2018-07-23T08:44:31.791Z,25.80
2018-07-23T08:47:00.152Z,25.80
2018-07-23T08:49:28.538Z,25.60
2018-07-23T08:51:56.921Z,25.70
2018-07-23T08:54:25.308Z,25.60
2018-07-23T08:56:53.664Z,25.80
2018-07-23T08:59:22.120Z,25.80
2018-07-23T09:01:50.486Z,25.70
2018-07-23T09:04:18.989Z,25.80
2018-07-23T09:06:47.326Z,25.90
2018-07-23T09:09:15.764Z,25.90
2018-07-23T09:11:44.158Z,25.90
2018-07-23T09:14:12.549Z,25.80
2018-07-23T09:16:40.981Z,25.90
2018-07-23T09:19:09.341Z,25.80
2018-07-23T09:21:37.745Z,25.70
2018-07-23T09:24:06.157Z,25.90
2018-07-23T09:26:34.538Z,25.90
2018-07-23T09:29:02.982Z,26.00
2018-07-23T09:31:31.346Z,25.90
2018-07-23T09:33:59.737Z,25.90
2018-07-23T09:36:28.141Z,26.10
2018-07-23T09:38:56.505Z,26.30
2018-07-23T09:41:24.886Z,26.30
2018-07-23T09:43:53.330Z,26.10
2018-07-23T09:46:21.717Z,25.90
2018-07-23T09:48:50.101Z,25.90
2018-07-23T09:51:18.458Z,26.00
2018-07-23T09:53:46.799Z,26.30
2018-07-23T09:56:15.225Z,26.20
2018-07-23T09:58:43.653Z,26.30
2018-07-23T10:01:13.184Z,26.40
2018-07-23T10:06:10.547Z,26.50
2018-07-23T10:08:38.921Z,26.60
2018-07-23T10:11:07.318Z,26.70
2018-07-23T10:13:35.709Z,26.60
2018-07-23T10:16:04.093Z,26.70
2018-07-23T10:18:32.492Z,26.60
2018-07-23T10:21:00.872Z,26.60
2018-07-23T10:23:29.578Z,26.60
2018-07-23T10:25:57.980Z,26.70
2018-07-23T10:28:26.620Z,26.80
2018-07-23T10:30:54.999Z,26.80
2018-07-23T10:33:23.358Z,26.80
2018-07-23T10:35:51.756Z,26.90
2018-07-23T10:38:20.117Z,27.00
2018-07-23T10:40:48.766Z,27.10
2018-07-23T10:43:17.260Z,27.10
2018-07-23T10:45:45.682Z,27.20
2018-07-23T10:48:14.086Z,27.20
2018-07-23T10:50:42.565Z,27.20
2018-07-23T10:53:10.971Z,27.10
2018-07-23T10:55:39.373Z,27.10
2018-07-23T10:58:07.753Z,26.90
2018-07-23T11:00:36.121Z,27.00
2018-07-23T11:03:04.525Z,27.00
2018-07-23T11:05:32.891Z,26.90
2018-07-23T11:10:29.457Z,27.10
2018-07-23T11:12:57.924Z,27.10
2018-07-23T11:15:26.318Z,26.90
2018-07-23T11:17:54.662Z,27.00
2018-07-23T11:20:23.103Z,27.10
2018-07-23T11:22:51.496Z,27.10
2018-07-23T11:25:38.977Z,27.20
2018-07-23T11:27:48.349Z,27.30
2018-07-23T11:30:16.707Z,27.10
2018-07-23T11:32:45.083Z,27.00
2018-07-23T11:35:13.434Z,26.90
2018-07-23T11:37:41.814Z,27.00
2018-07-23T11:40:10.204Z,27.10
2018-07-23T11:42:38.564Z,27.40
2018-07-23T11:45:07.024Z,27.60
2018-07-23T11:47:35.482Z,27.80
2018-07-23T11:50:03.977Z,27.80
2018-07-23T11:52:32.330Z,27.60
2018-07-23T11:55:00.762Z,27.40
2018-07-23T11:57:29.125Z,27.40
2018-07-23T11:59:57.526Z,27.20
2018-07-23T12:02:25.935Z,27.20
2018-07-23T12:04:54.316Z,27.20
2018-07-23T12:07:22.698Z,27.30
2018-07-23T12:09:51.069Z,27.30
2018-07-23T12:12:19.562Z,27.30
2018-07-23T12:14:47.973Z,27.30
2018-07-23T12:17:16.455Z,27.40
2018-07-23T12:19:44.854Z,27.50
2018-07-23T12:22:13.229Z,27.60
2018-07-23T12:24:41.574Z,27.70
2018-07-23T12:27:09.965Z,27.60
2018-07-23T12:29:38.363Z,27.80
2018-07-23T12:32:07.010Z,27.80
2018-07-23T12:34:35.384Z,27.50
2018-07-23T12:37:03.766Z,27.40
2018-07-23T12:39:32.253Z,27.20
2018-07-23T12:42:00.655Z,27.30
2018-07-23T12:44:29.035Z,27.40
2018-07-23T12:46:57.438Z,27.60
2018-07-23T12:49:25.753Z,27.80
2018-07-23T12:51:54.155Z,27.80
2018-07-23T12:54:22.530Z,28.00
2018-07-23T12:56:50.934Z,28.10
2018-07-23T12:59:19.346Z,28.10
2018-07-23T13:01:47.741Z,28.10
2018-07-23T13:04:16.096Z,28.10
2018-07-23T13:06:44.481Z,28.00
2018-07-23T13:09:13.565Z,27.80
2018-07-23T13:11:41.999Z,27.80
2018-07-23T13:16:38.550Z,27.80
2018-07-23T13:19:07.079Z,27.80
2018-07-23T13:21:35.501Z,27.70
2018-07-23T13:24:03.974Z,27.60
2018-07-23T13:29:00.610Z,28.00
2018-07-23T13:31:28.968Z,28.10
2018-07-23T13:33:57.372Z,28.00
2018-07-23T13:36:25.752Z,28.00
2018-07-23T13:38:54.620Z,28.10
2018-07-23T13:41:23.039Z,28.30
2018-07-23T13:43:51.409Z,28.30
2018-07-23T13:46:19.882Z,28.40
2018-07-23T13:48:48.231Z,28.40
2018-07-23T13:51:16.666Z,28.30
2018-07-23T13:53:45.178Z,28.30
2018-07-23T13:56:13.538Z,28.20
2018-07-23T13:58:41.981Z,28.00
2018-07-23T14:01:10.475Z,27.80
2018-07-23T14:03:38.872Z,27.80
2018-07-23T14:08:35.450Z,27.90
2018-07-23T14:11:03.915Z,27.90
2018-07-23T14:13:32.379Z,28.10
2018-07-23T14:16:00.757Z,28.10
2018-07-23T14:18:29.116Z,28.30
2018-07-23T14:20:57.534Z,28.40
2018-07-23T14:23:25.909Z,28.40
2018-07-23T14:25:54.320Z,28.30
2018-07-23T14:28:22.679Z,28.50
2018-07-23T14:30:51.073Z,28.60
2018-07-23T14:33:19.463Z,28.60
2018-07-23T14:35:47.824Z,28.60
2018-07-23T14:38:16.212Z,28.60
2018-07-23T14:40:44.596Z,28.60
2018-07-23T14:43:14.016Z,28.70
2018-07-23T14:45:42.374Z,28.60
2018-07-23T14:48:10.725Z,28.20
2018-07-23T14:53:07.269Z,28.00
2018-07-23T14:55:35.603Z,28.00
2018-07-23T14:58:04.090Z,28.10
2018-07-23T15:00:32.560Z,28.30
2018-07-23T15:03:00.919Z,28.40
2018-07-23T15:05:29.331Z,28.50
2018-07-23T15:07:57.726Z,28.60
2018-07-23T15:10:26.083Z,28.60
2018-07-23T15:12:54.458Z,28.60
2018-07-23T15:15:22.877Z,28.60
2018-07-23T15:17:51.240Z,28.60
2018-07-23T15:20:19.621Z,28.60
2018-07-23T15:22:47.981Z,28.70
2018-07-23T15:25:16.362Z,28.60
2018-07-23T15:27:44.774Z,28.60
2018-07-23T15:30:13.170Z,28.60
2018-07-23T15:32:41.503Z,28.70
2018-07-23T15:35:09.889Z,28.60
2018-07-23T15:37:38.334Z,28.60
2018-07-23T15:40:06.674Z,28.40
2018-07-23T15:42:35.092Z,28.30
2018-07-23T15:45:03.572Z,28.20
2018-07-23T15:47:31.874Z,28.20
2018-07-23T16:00:58.917Z,28.40
2018-07-23T16:40:37.004Z,27.80
2018-07-23T16:43:05.537Z,27.80
2018-07-23T17:06:28.993Z,27.70
2018-07-23T17:08:57.385Z,27.70
2018-07-23T17:13:02.501Z,27.80
2018-07-23T17:23:02.253Z,27.50
2018-07-23T17:25:30.640Z,27.50
2018-07-23T17:30:02.522Z,27.50
2018-07-23T17:32:31.900Z,27.50
2018-07-23T17:35:00.374Z,27.50
2018-07-23T17:37:28.783Z,27.50
2018-07-23T17:39:57.342Z,27.40
2018-07-23T17:42:25.812Z,27.40
2018-07-23T17:44:54.216Z,27.30
2018-07-23T17:47:22.666Z,27.30
2018-07-23T17:49:51.073Z,27.30
2018-07-23T17:52:20.703Z,27.30
2018-07-23T17:54:49.076Z,27.20
2018-07-23T17:57:17.486Z,27.20
2018-07-23T17:59:45.842Z,27.10
2018-07-23T18:02:14.397Z,27.10
2018-07-23T18:19:57.833Z,26.80
2018-07-23T18:22:26.262Z,26.70
2018-07-23T18:24:55.348Z,26.70
2018-07-23T18:27:23.733Z,26.70
2018-07-23T18:29:52.115Z,26.70
2018-07-23T18:32:20.457Z,26.60
2018-07-23T18:34:48.889Z,26.50
2018-07-23T18:39:09.059Z,26.60
2018-07-23T18:41:37.843Z,26.50
2018-07-23T18:44:06.595Z,26.50
2018-07-23T18:46:35.082Z,26.40
2018-07-23T18:49:25.417Z,26.40
2018-07-23T18:51:54.585Z,26.30
2018-07-23T18:54:24.168Z,26.30
2018-07-23T19:00:51.702Z,26.20
2018-07-23T19:03:20.116Z,26.20
2018-07-23T19:05:48.476Z,26.20
2018-07-23T19:08:16.892Z,26.20
2018-07-23T19:10:45.395Z,26.10
2018-07-23T19:13:13.813Z,26.10
2018-07-23T19:15:42.205Z,26.10
2018-07-23T19:18:10.601Z,26.00
2018-07-23T19:32:42.205Z,25.70
2018-07-23T19:35:10.653Z,25.70
2018-07-23T19:37:39.081Z,25.70
2018-07-23T19:40:07.503Z,25.60
2018-07-23T19:42:36.189Z,25.60
2018-07-23T19:45:04.972Z,25.50
2018-07-23T19:47:33.437Z,25.50
2018-07-23T19:50:01.797Z,25.30
2018-07-23T19:54:58.371Z,25.30
2018-07-23T19:57:26.748Z,25.30
2018-07-23T20:02:23.227Z,25.20
2018-07-23T20:04:51.702Z,25.20
2018-07-23T20:07:20.075Z,25.20
2018-07-23T20:09:48.421Z,25.00
2018-07-23T20:12:16.785Z,25.00
2018-07-23T20:14:45.158Z,25.10
2018-07-23T20:17:13.524Z,25.00
2018-07-23T20:19:42.228Z,25.00
2018-07-23T20:22:10.561Z,25.00
2018-07-23T20:24:38.957Z,24.90
2018-07-23T20:27:07.305Z,24.90
2018-07-23T20:29:35.726Z,24.80
2018-07-23T20:32:04.269Z,24.80
2018-07-23T20:34:32.709Z,24.70
2018-07-23T20:37:01.118Z,24.70
2018-07-23T20:39:30.445Z,24.50
2018-07-23T20:41:58.814Z,24.50
2018-07-23T20:44:27.364Z,24.50
2018-07-23T20:46:55.746Z,24.50
2018-07-23T20:49:24.133Z,24.50
2018-07-23T20:54:20.839Z,24.30
2018-07-23T20:56:49.219Z,24.30
2018-07-23T20:59:17.611Z,24.20
2018-07-23T21:01:45.954Z,24.10
2018-07-23T21:04:14.333Z,24.10
2018-07-23T21:06:42.712Z,24.00
2018-07-23T21:09:11.137Z,24.00
2018-07-23T21:11:39.503Z,24.10
2018-07-23T21:14:07.850Z,24.00
2018-07-23T21:16:36.332Z,24.00
2018-07-23T21:19:04.992Z,23.90
2018-07-23T21:21:33.397Z,23.80
2018-07-23T21:24:01.794Z,23.80
2018-07-23T21:26:30.232Z,23.90
2018-07-23T21:28:58.698Z,23.80
2018-07-23T21:31:27.647Z,23.80
2018-07-23T21:33:56.042Z,23.80
2018-07-23T21:36:24.416Z,23.70
2018-07-23T21:38:52.805Z,23.70
2018-07-23T21:41:21.165Z,23.70
2018-07-23T21:43:49.573Z,23.70
2018-07-23T21:46:17.953Z,23.60
2018-07-23T21:48:46.365Z,23.70
2018-07-23T21:51:14.826Z,23.60
2018-07-23T21:53:43.224Z,23.50
2018-07-23T21:56:11.605Z,23.50
2018-07-23T21:58:39.949Z,23.60
2018-07-23T22:01:08.303Z,23.50
2018-07-23T22:03:36.701Z,23.40
2018-07-23T22:06:05.261Z,23.40
2018-07-23T22:08:33.686Z,23.30
2018-07-23T22:11:02.071Z,23.30
2018-07-23T22:13:30.423Z,23.30
2018-07-23T22:15:58.780Z,23.30
2018-07-23T22:18:27.201Z,23.30
2018-07-23T22:20:55.533Z,23.30
2018-07-23T22:23:23.929Z,23.20
2018-07-23T22:25:52.327Z,23.30
2018-07-23T22:28:20.666Z,23.30
2018-07-23T22:30:49.064Z,23.30
2018-07-23T22:33:17.457Z,23.40
2018-07-23T22:35:45.789Z,23.40
2018-07-23T22:38:14.144Z,23.40
2018-07-23T22:40:42.521Z,23.30
2018-07-23T22:43:10.863Z,23.30
2018-07-23T22:45:39.302Z,23.30
2018-07-23T22:48:07.637Z,23.30
2018-07-23T22:50:36.034Z,23.30
2018-07-23T22:55:32.620Z,23.10
2018-07-23T22:58:00.994Z,23.00
2018-07-23T23:00:29.433Z,23.00
2018-07-23T23:02:57.796Z,23.00
2018-07-23T23:05:26.236Z,22.90
2018-07-23T23:07:54.643Z,22.90
2018-07-23T23:10:23.015Z,22.90
2018-07-23T23:12:51.377Z,22.90
2018-07-23T23:15:19.709Z,22.80
2018-07-23T23:17:48.057Z,22.80
2018-07-23T23:20:16.537Z,22.70
2018-07-23T23:22:44.901Z,22.60
2018-07-23T23:25:13.232Z,22.60
2018-07-23T23:27:41.612Z,22.60
2018-07-23T23:30:10.024Z,22.60
2018-07-23T23:32:38.358Z,22.50
2018-07-23T23:35:06.781Z,22.50
2018-07-23T23:37:35.110Z,22.50
2018-07-23T23:40:03.509Z,22.60
2018-07-23T23:42:31.872Z,22.60
2018-07-23T23:45:00.289Z,22.60
2018-07-23T23:47:28.633Z,22.50
2018-07-23T23:49:56.971Z,22.40
2018-07-23T23:52:25.440Z,22.40
2018-07-23T23:54:53.821Z,22.30
2018-07-23T23:57:22.178Z,22.30
2018-07-23T23:59:50.569Z,22.30
